createdAt,value
2023-01-26T00:04:08.264Z,32.60
2023-01-26T00:09:02.712Z,30.13
2023-01-26T00:13:57.749Z,29.13
2023-01-26T00:18:51.728Z,23.90
2023-01-26T00:23:46.231Z,22.85
2023-01-26T00:28:39.722Z,19.35
2023-01-26T00:33:33.545Z,26.23
2023-01-26T00:38:27.333Z,24.23
2023-01-26T00:43:20.754Z,24.90
2023-01-26T00:48:14.607Z,25.58
2023-01-26T00:53:08.307Z,24.75
2023-01-26T00:58:05.257Z,21.35
2023-01-26T01:02:58.159Z,25.55
2023-01-26T01:07:51.278Z,20.65
2023-01-26T01:12:44.812Z,24.38
2023-01-26T01:17:38.275Z,23.75
2023-01-26T01:22:31.648Z,27.90
2023-01-26T01:27:25.515Z,25.83
2023-01-26T01:32:23.627Z,28.05
2023-01-26T01:37:17.422Z,25.20
2023-01-26T01:42:10.263Z,23.80
2023-01-26T01:47:04.724Z,25.95
2023-01-26T01:52:04.522Z,20.85
2023-01-26T01:57:00.349Z,20.50
2023-01-26T02:01:54.360Z,22.48
2023-01-26T02:06:52.606Z,23.90
2023-01-26T02:11:45.628Z,22.00
2023-01-26T02:16:40.442Z,20.90
2023-01-26T02:21:34.780Z,21.58
2023-01-26T02:26:29.363Z,21.70
2023-01-26T02:31:23.454Z,19.38
2023-01-26T02:36:39.399Z,23.17
2023-01-26T02:41:50.443Z,23.05
2023-01-26T02:46:43.166Z,21.85
2023-01-26T02:51:37.180Z,20.65
2023-01-26T02:56:29.941Z,20.13
2023-01-26T03:01:22.708Z,16.73
2023-01-26T03:06:15.838Z,22.67
2023-01-26T03:11:09.348Z,22.17
2023-01-26T03:16:21.839Z,25.45
2023-01-26T03:21:35.435Z,18.55
2023-01-26T03:26:47.091Z,21.58
2023-01-26T03:31:41.099Z,23.27
2023-01-26T03:36:34.123Z,18.88
2023-01-26T03:41:50.397Z,22.05
2023-01-26T03:47:01.795Z,20.40
2023-01-26T03:52:13.430Z,25.33
2023-01-26T03:57:06.504Z,22.58
2023-01-26T04:02:18.901Z,22.63
2023-01-26T04:07:30.473Z,19.65
2023-01-26T04:12:24.517Z,26.45
2023-01-26T04:17:48.970Z,23.58
2023-01-26T04:22:45.705Z,21.60
2023-01-26T04:27:42.439Z,21.52
2023-01-26T04:32:36.670Z,19.48
2023-01-26T04:37:29.317Z,20.15
2023-01-26T04:42:25.193Z,26.00
2023-01-26T04:47:18.977Z,23.85
2023-01-26T04:52:12.905Z,24.80
2023-01-26T04:57:06.393Z,28.85
2023-01-26T05:02:01.177Z,19.63
2023-01-26T05:06:54.908Z,22.77
2023-01-26T05:11:51.409Z,23.38
2023-01-26T05:17:07.704Z,22.08
2023-01-26T05:22:24.669Z,20.52
2023-01-26T05:27:37.444Z,21.88
2023-01-26T05:32:31.832Z,19.88
2023-01-26T05:37:28.666Z,23.02
2023-01-26T05:42:23.699Z,26.75
2023-01-26T05:47:34.173Z,21.85
2023-01-26T05:52:27.724Z,16.98
2023-01-26T05:57:21.355Z,17.45
2023-01-26T06:02:19.003Z,19.02
2023-01-26T06:07:14.273Z,20.55
2023-01-26T06:12:17.836Z,19.30
2023-01-26T06:17:18.168Z,18.77
2023-01-26T06:22:14.862Z,26.02
2023-01-26T06:27:16.746Z,20.02
2023-01-26T06:32:15.004Z,22.80
2023-01-26T06:37:09.871Z,25.08
2023-01-26T06:42:06.059Z,29.67
2023-01-26T06:46:59.454Z,37.60
2023-01-26T06:52:18.487Z,33.38
2023-01-26T06:57:15.834Z,25.95
2023-01-26T07:02:32.025Z,25.70
2023-01-26T07:07:25.427Z,23.35
2023-01-26T07:12:18.927Z,25.27
2023-01-26T07:17:11.902Z,26.92
2023-01-26T07:22:06.044Z,20.27
2023-01-26T07:27:01.431Z,19.45
2023-01-26T07:31:54.770Z,29.25
2023-01-26T07:36:48.703Z,25.73
2023-01-26T07:41:42.062Z,20.55
2023-01-26T07:46:55.074Z,29.13
2023-01-26T07:51:48.669Z,29.63
2023-01-26T07:56:41.892Z,32.20
2023-01-26T08:01:34.581Z,31.88
2023-01-26T08:06:28.334Z,36.47
2023-01-26T08:11:23.863Z,41.03
2023-01-26T08:16:24.591Z,30.10
2023-01-26T08:21:19.540Z,29.02
2023-01-26T08:26:14.384Z,28.40
2023-01-26T08:31:09.043Z,26.80
2023-01-26T08:36:07.624Z,30.05
2023-01-26T08:41:03.531Z,25.97
2023-01-26T08:45:56.430Z,25.63
2023-01-26T08:50:53.977Z,28.42
2023-01-26T08:55:47.225Z,37.08
2023-01-26T09:00:42.904Z,39.83
2023-01-26T09:05:37.295Z,44.60
2023-01-26T09:10:30.797Z,39.70
2023-01-26T09:15:28.049Z,31.48
2023-01-26T09:20:24.517Z,18.33
2023-01-26T09:25:17.493Z,15.68
2023-01-26T09:30:11.534Z,16.58
2023-01-26T09:35:06.523Z,23.92
2023-01-26T09:40:00.343Z,18.35
2023-01-26T09:45:00.734Z,27.83
2023-01-26T09:50:02.800Z,24.05
2023-01-26T09:55:00.301Z,26.10
2023-01-26T09:59:55.660Z,25.05
2023-01-26T10:04:51.948Z,20.50
2023-01-26T10:09:50.066Z,30.38
2023-01-26T10:15:09.226Z,25.25
2023-01-26T10:20:07.053Z,37.13
2023-01-26T10:25:06.380Z,22.00
2023-01-26T10:29:59.532Z,28.17
2023-01-26T10:34:53.403Z,17.25
2023-01-26T10:40:01.895Z,15.38
2023-01-26T10:44:54.920Z,17.30
2023-01-26T10:49:49.223Z,12.63
2023-01-26T10:54:44.622Z,14.45
2023-01-26T10:59:41.423Z,17.60
2023-01-26T11:04:35.588Z,13.43
2023-01-26T11:09:32.165Z,14.00
2023-01-26T11:14:25.385Z,16.70
2023-01-26T11:19:37.581Z,14.77
2023-01-26T11:24:36.828Z,12.48
2023-01-26T11:29:40.971Z,16.63
2023-01-26T11:35:01.182Z,19.13
2023-01-26T11:40:25.085Z,17.58
2023-01-26T11:45:22.281Z,14.82
2023-01-26T11:50:29.320Z,17.83
2023-01-26T11:55:42.582Z,16.63
2023-01-26T12:00:45.609Z,17.55
2023-01-26T12:05:49.252Z,18.13
2023-01-26T12:10:49.416Z,14.68
2023-01-26T12:15:48.096Z,14.32
2023-01-26T12:20:42.394Z,16.83
2023-01-26T12:25:37.099Z,12.32
2023-01-26T12:30:53.594Z,14.38
2023-01-26T12:36:01.575Z,21.48
2023-01-26T12:41:02.771Z,15.95
2023-01-26T12:46:00.841Z,12.68
2023-01-26T12:50:58.333Z,16.58
2023-01-26T12:55:58.575Z,17.02
2023-01-26T13:01:15.533Z,13.30
2023-01-26T13:06:11.492Z,19.30
2023-01-26T13:11:07.687Z,14.95
2023-01-26T13:16:18.605Z,18.35
2023-01-26T13:21:11.889Z,14.90
2023-01-26T13:26:33.291Z,12.95
2023-01-26T13:31:33.008Z,13.98
2023-01-26T13:36:26.792Z,14.98
2023-01-26T13:41:21.642Z,14.07
2023-01-26T13:46:39.310Z,15.40
2023-01-26T13:51:35.088Z,15.90
2023-01-26T13:56:27.892Z,11.88
2023-01-26T14:01:21.471Z,13.43
2023-01-26T14:06:23.434Z,12.82
2023-01-26T14:11:19.440Z,10.32
2023-01-26T14:16:55.056Z,15.05
2023-01-26T14:21:50.800Z,13.93
2023-01-26T14:26:45.315Z,12.50
2023-01-26T14:31:38.312Z,14.38
2023-01-26T14:36:34.241Z,20.13
2023-01-26T14:41:28.675Z,14.45
2023-01-26T14:46:29.212Z,14.60
2023-01-26T14:51:24.183Z,15.85
2023-01-26T14:56:22.160Z,18.13
2023-01-26T15:01:21.969Z,15.27
2023-01-26T15:06:14.144Z,14.15
2023-01-26T15:11:25.549Z,13.43
2023-01-26T15:16:21.690Z,16.00
2023-01-26T15:21:24.078Z,24.17
2023-01-26T15:26:32.161Z,18.38
2023-01-26T15:31:34.604Z,22.48
2023-01-26T15:36:27.070Z,21.38
2023-01-26T15:41:23.976Z,14.18
2023-01-26T15:46:18.172Z,16.02
2023-01-26T15:51:13.962Z,21.30
2023-01-26T15:56:08.044Z,24.10
2023-01-26T16:01:01.346Z,28.52
2023-01-26T16:05:54.923Z,22.13
2023-01-26T16:10:47.682Z,20.13
2023-01-26T16:15:44.461Z,21.55
2023-01-26T16:20:39.052Z,21.52
2023-01-26T16:25:32.968Z,31.25
2023-01-26T16:30:26.989Z,25.17
2023-01-26T16:35:22.488Z,31.55
2023-01-26T16:40:17.850Z,32.55
2023-01-26T16:45:22.327Z,29.20
2023-01-26T16:50:16.044Z,29.90
2023-01-26T16:55:14.374Z,45.47
2023-01-26T17:00:08.663Z,38.38
2023-01-26T17:05:02.251Z,26.65
2023-01-26T17:09:54.990Z,30.38
2023-01-26T17:14:48.083Z,32.45
2023-01-26T17:19:41.634Z,37.22
2023-01-26T17:24:35.434Z,62.53
2023-01-26T17:29:29.832Z,87.45
2023-01-26T17:34:24.201Z,82.22
2023-01-26T17:39:19.646Z,69.68
2023-01-26T17:44:14.667Z,54.22
2023-01-26T17:49:07.901Z,72.47
2023-01-26T17:54:01.796Z,74.25
2023-01-26T17:58:56.622Z,55.88
2023-01-26T18:03:50.568Z,41.33
2023-01-26T18:08:44.603Z,43.63
2023-01-26T18:13:37.358Z,41.38
2023-01-26T18:18:30.852Z,63.40
2023-01-26T18:23:24.237Z,60.25
2023-01-26T18:28:18.131Z,51.53
2023-01-26T18:33:11.742Z,41.47
2023-01-26T18:38:05.756Z,45.30
2023-01-26T18:42:59.271Z,44.50
2023-01-26T18:47:53.163Z,51.58
2023-01-26T18:52:45.734Z,40.72
2023-01-26T18:57:39.797Z,49.83
2023-01-26T19:02:34.394Z,50.78
2023-01-26T19:07:28.681Z,54.10
2023-01-26T19:12:22.518Z,43.40
2023-01-26T19:17:15.626Z,53.55
2023-01-26T19:22:09.645Z,49.78
2023-01-26T19:27:03.732Z,42.90
2023-01-26T19:31:56.897Z,37.53
2023-01-26T19:36:50.829Z,47.53
2023-01-26T19:41:46.645Z,44.42
2023-01-26T19:46:39.935Z,45.70
2023-01-26T19:51:33.565Z,42.92
2023-01-26T19:56:29.080Z,35.00
2023-01-26T20:01:24.055Z,35.28
2023-01-26T20:06:18.730Z,30.75
2023-01-26T20:11:12.279Z,29.20
2023-01-26T20:16:10.410Z,28.55
2023-01-26T20:21:06.989Z,33.97
2023-01-26T20:26:04.768Z,41.17
2023-01-26T20:31:05.252Z,36.22
2023-01-26T20:35:59.757Z,75.60
2023-01-26T20:40:52.983Z,30.08
2023-01-26T20:45:46.948Z,25.92
2023-01-26T20:50:41.879Z,35.15
2023-01-26T20:55:39.880Z,29.52
2023-01-26T21:00:33.879Z,44.35
2023-01-26T21:05:27.544Z,51.97
2023-01-26T21:10:21.147Z,55.28
2023-01-26T21:15:13.891Z,41.47
2023-01-26T21:20:11.851Z,34.88
2023-01-26T21:25:07.624Z,36.53
2023-01-26T21:30:01.135Z,27.63
2023-01-26T21:34:54.134Z,25.58
2023-01-26T21:39:46.836Z,29.73
2023-01-26T21:44:59.542Z,31.25
2023-01-26T21:49:53.821Z,23.98
2023-01-26T21:54:48.173Z,23.90
2023-01-26T21:59:40.959Z,23.80
2023-01-26T22:04:34.181Z,25.00
2023-01-26T22:09:28.448Z,31.33
2023-01-26T22:14:24.422Z,31.05
2023-01-26T22:19:17.876Z,24.70
2023-01-26T22:24:12.335Z,26.73
2023-01-26T22:29:05.953Z,25.20
2023-01-26T22:33:59.803Z,23.30
2023-01-26T22:38:53.675Z,28.67
2023-01-26T22:43:52.053Z,22.63
2023-01-26T22:48:45.049Z,31.05
2023-01-26T22:53:39.502Z,31.38
2023-01-26T22:58:35.228Z,29.70
2023-01-26T23:03:32.551Z,33.65
2023-01-26T23:08:25.282Z,31.08
2023-01-26T23:13:18.088Z,27.05
2023-01-26T23:18:11.219Z,23.92
2023-01-26T23:23:03.922Z,22.33
2023-01-26T23:27:57.498Z,24.17
2023-01-26T23:32:50.918Z,22.63
2023-01-26T23:37:44.723Z,21.67
2023-01-26T23:42:55.769Z,21.98
2023-01-26T23:47:50.608Z,22.23
2023-01-26T23:52:43.946Z,23.85
2023-01-26T23:57:37.113Z,21.55
